Time;durP1;ratioP1;P1;durP2;ratioP2;P2;SDS_P1;SDS_P2;PMS_P1;PMS_P2;Temp;Humidity;BMP_temperature;BMP_pressure;BME280_temperature;BME280_humidity;BME280_pressure;Samples;Min_cycle;Max_cycle;Signal;HPM_P1;HPM_P2
2022/10/18 00:00:16;;;;;;;;;;;;;;;3.23;100.00;96519.78;4993696;28;19926;-71
2022/10/18 00:02:43;;;;;;;;;;;;;;;3.35;100.00;96514.41;5004762;28;20036;-71
2022/10/18 00:05:10;;;;;;;;;;;;;;;2.99;100.00;96516.91;5007625;28;19964;-72
2022/10/18 00:07:36;;;;;;;;;;;;;;;2.87;100.00;96509.38;5012786;28;19999;-72
2022/10/18 00:10:04;;;;;;;;;;;;;;;3.13;100.00;96502.75;5008977;28;19936;-71
2022/10/18 00:12:35;;;;;;;;;;;;;;;3.00;100.00;96509.03;5011255;28;19929;-71
2022/10/18 00:15:03;;;;;;;;;;;;;;;3.07;100.00;96504.13;4995748;28;19964;-72
2022/10/18 00:17:29;;;;;;;;;;;;;;;2.81;100.00;96509.94;5011089;28;19992;-71
2022/10/18 00:19:56;;;;;;;;;;;;;;;2.79;100.00;96501.56;5009712;28;19929;-73
2022/10/18 00:22:24;;;;;;;;;;;;;;;2.77;100.00;96497.47;5013897;28;20719;-71
2022/10/18 00:24:51;;;;;;;;;;;;;;;2.74;100.00;96498.59;4994952;28;20030;-72
2022/10/18 00:27:17;;;;;;;;;;;;;;;2.69;100.00;96495.63;5015692;28;19953;-72
2022/10/18 00:29:44;;;;;;;;;;;;;;;2.62;100.00;96489.41;5013683;28;19964;-72
2022/10/18 00:32:11;;;;;;;;;;;;;;;2.41;100.00;96487.84;5017419;28;19933;-72
2022/10/18 00:34:38;;;;;;;;;;;;;;;2.46;100.00;96480.50;5012691;28;19929;-72
2022/10/18 00:37:05;;;;;;;;;;;;;;;1.78;100.00;96392.44;4997764;28;19987;-71
2022/10/18 00:39:32;;;;;;;;;;;;;;;2.40;100.00;96470.78;5014991;28;19925;-71
2022/10/18 00:41:58;;;;;;;;;;;;;;;2.26;100.00;96476.38;5015166;28;19992;-71
2022/10/18 00:44:25;;;;;;;;;;;;;;;2.14;100.00;96480.03;5013929;28;20179;-72
2022/10/18 00:46:54;;;;;;;;;;;;;;;1.92;100.00;96476.81;5015922;28;20388;-71
2022/10/18 00:49:26;;;;;;;;;;;;;;;1.95;100.00;96481.69;4969176;28;20114;-72
2022/10/18 00:51:58;;;;;;;;;;;;;;;1.82;100.00;96481.13;4970369;28;20446;-71
2022/10/18 00:54:25;;;;;;;;;;;;;;;1.84;100.00;96474.13;4973925;28;20277;-72
2022/10/18 00:56:52;;;;;;;;;;;;;;;1.85;100.00;96468.03;4970068;28;20743;-71
2022/10/18 00:59:19;;;;;;;;;;;;;;;1.83;100.00;96464.78;4974366;28;19930;-71
2022/10/18 01:01:45;;;;;;;;;;;;;;;1.78;100.00;96464.38;4970664;28;19937;-71
2022/10/18 01:04:14;;;;;;;;;;;;;;;1.69;100.00;96459.13;4972204;28;20020;-71
2022/10/18 01:06:48;;;;;;;;;;;;;;;1.75;100.00;96459.50;4973491;28;19937;-71
2022/10/18 01:09:16;;;;;;;;;;;;;;;1.78;100.00;96451.53;4974044;28;19937;-72
2022/10/18 01:11:46;;;;;;;;;;;;;;;1.81;100.00;96448.72;4977868;28;20398;-71
2022/10/18 01:14:31;;;;;;;;;;;;;;;1.89;100.00;96456.53;4968264;28;19934;-70
2022/10/18 01:17:07;;;;;;;;;;;;;;;1.84;100.00;96456.16;4973748;28;19936;-71
2022/10/18 01:19:48;;;;;;;;;;;;;;;2.01;100.00;96460.56;4971798;28;19938;-71
2022/10/18 01:22:33;;;;;;;;;;;;;;;1.75;100.00;96449.22;4972788;28;20394;-71
2022/10/18 01:25:19;;;;;;;;;;;;;;;1.62;100.00;96445.19;4975002;28;19942;-71
2022/10/18 01:27:54;;;;;;;;;;;;;;;1.82;100.00;96443.44;4973060;28;19926;-70
2022/10/18 01:30:27;;;;;;;;;;;;;;;1.89;100.00;96441.09;4971183;28;19925;-71
2022/10/18 01:32:57;;;;;;;;;;;;;;;1.34;100.00;96364.66;4962879;28;19973;-71
2022/10/18 01:35:28;;;;;;;;;;;;;;;1.81;100.00;96439.22;4974927;28;19984;-71
2022/10/18 01:37:58;;;;;;;;;;;;;;;1.75;100.00;96444.09;4973844;28;20008;-71
2022/10/18 01:40:25;;;;;;;;;;;;;;;1.86;100.00;96443.97;4973400;28;19930;-71
2022/10/18 01:42:54;;;;;;;;;;;;;;;1.99;100.00;96441.13;4974734;28;20024;-71
2022/10/18 01:45:22;;;;;;;;;;;;;;;1.98;100.00;96440.31;4971059;28;19933;-70
2022/10/18 01:47:48;;;;;;;;;;;;;;;1.80;100.00;96441.94;4982902;28;20007;-70
2022/10/18 01:50:27;;;;;;;;;;;;;;;1.63;100.00;96439.09;4992643;28;19921;-71
2022/10/18 01:52:53;;;;;;;;;;;;;;;1.54;100.00;96442.50;5009350;28;19972;-71
2022/10/18 01:55:23;;;;;;;;;;;;;;;1.46;100.00;96440.59;5011896;28;20020;-71
2022/10/18 01:58:09;;;;;;;;;;;;;;;1.41;100.00;96431.69;5011501;28;19933;-71
2022/10/18 02:00:39;;;;;;;;;;;;;;;1.29;100.00;96436.91;5012317;28;19975;-71
2022/10/18 02:03:13;;;;;;;;;;;;;;;1.21;100.00;96436.00;5008389;28;20334;-71
2022/10/18 02:06:03;;;;;;;;;;;;;;;1.23;100.00;96429.75;5008421;28;19929;-71
2022/10/18 02:08:37;;;;;;;;;;;;;;;1.08;100.00;96441.34;5014573;28;20402;-71
2022/10/18 02:11:03;;;;;;;;;;;;;;;1.11;100.00;96435.97;5008365;28;19987;-71
2022/10/18 02:13:34;;;;;;;;;;;;;;;1.07;100.00;96437.16;4996043;28;19988;-69
2022/10/18 02:16:05;;;;;;;;;;;;;;;1.11;100.00;96441.09;5009509;28;20520;-70
2022/10/18 02:18:40;;;;;;;;;;;;;;;1.06;100.00;96432.97;5010473;28;20591;-71
2022/10/18 02:21:10;;;;;;;;;;;;;;;1.20;100.00;96435.16;5011668;28;20003;-71
2022/10/18 02:23:37;;;;;;;;;;;;;;;1.12;100.00;96432.47;5012982;28;19976;-71
2022/10/18 02:26:04;;;;;;;;;;;;;;;0.99;100.00;96432.72;5008364;28;19929;-71
2022/10/18 02:28:31;;;;;;;;;;;;;;;1.04;100.00;96429.72;4994083;28;19933;-71
2022/10/18 02:31:15;;;;;;;;;;;;;;;1.10;100.00;96429.22;5012883;28;20414;-71
2022/10/18 02:33:51;;;;;;;;;;;;;;;0.94;100.00;96430.53;5008229;28;19932;-71
2022/10/18 02:36:32;;;;;;;;;;;;;;;0.92;100.00;96424.72;5014127;28;20018;-71
2022/10/18 02:39:03;;;;;;;;;;;;;;;1.03;100.00;96430.69;4994000;28;21364;-69
2022/10/18 02:41:30;;;;;;;;;;;;;;;0.80;100.00;96428.31;5010363;28;19929;-68
2022/10/18 02:43:57;;;;;;;;;;;;;;;0.76;100.00;96427.78;5014559;28;19988;-69
2022/10/18 02:46:23;;;;;;;;;;;;;;;0.76;100.00;96424.41;5013498;28;20452;-69
2022/10/18 02:48:50;;;;;;;;;;;;;;;0.72;100.00;96420.44;5009852;28;20015;-69
2022/10/18 02:51:17;;;;;;;;;;;;;;;0.61;100.00;96418.00;5012741;28;19987;-71
2022/10/18 02:53:43;;;;;;;;;;;;;;;0.57;100.00;96430.25;5008279;28;21177;-69
2022/10/18 02:56:10;;;;;;;;;;;;;;;0.71;100.00;96423.97;4976846;28;19933;-69
2022/10/18 02:58:36;;;;;;;;;;;;;;;0.84;100.00;96424.53;5009738;28;19933;-68
2022/10/18 03:01:03;;;;;;;;;;;;;;;0.92;100.00;96426.47;5012947;28;20023;-69
2022/10/18 03:03:29;;;;;;;;;;;;;;;0.86;100.00;96426.97;5013173;28;20711;-71
2022/10/18 03:05:56;;;;;;;;;;;;;;;0.90;100.00;96431.72;4990521;28;19999;-69
2022/10/18 03:08:23;;;;;;;;;;;;;;;0.75;100.00;96426.13;5004871;28;19960;-69
2022/10/18 03:10:49;;;;;;;;;;;;;;;0.85;100.00;96431.31;5015844;28;19940;-69
2022/10/18 03:13:17;;;;;;;;;;;;;;;0.88;100.00;96425.94;4992554;28;20589;-69
2022/10/18 03:15:43;;;;;;;;;;;;;;;0.94;100.00;96430.53;5008363;28;19957;-69
2022/10/18 03:18:10;;;;;;;;;;;;;;;0.99;100.00;96422.44;5010625;28;20315;-70
2022/10/18 03:20:36;;;;;;;;;;;;;;;1.04;100.00;96429.72;4992257;28;19964;-69
2022/10/18 03:23:03;;;;;;;;;;;;;;;0.91;100.00;96430.78;5009347;28;19971;-70
2022/10/18 03:25:30;;;;;;;;;;;;;;;0.94;100.00;96435.66;5008022;28;19941;-69
2022/10/18 03:27:57;;;;;;;;;;;;;;;1.00;100.00;96423.25;4994583;28;19925;-70
2022/10/18 03:30:24;;;;;;;;;;;;;;;0.93;100.00;96423.75;5009119;28;19937;-70
2022/10/18 03:32:50;;;;;;;;;;;;;;;0.98;100.00;96425.13;5010219;28;20326;-70
2022/10/18 03:35:17;;;;;;;;;;;;;;;0.95;100.00;96421.91;4996043;28;19925;-70
2022/10/18 03:37:44;;;;;;;;;;;;;;;0.78;100.00;96419.94;5005889;28;19937;-70
2022/10/18 03:40:11;;;;;;;;;;;;;;;0.74;100.00;96428.84;4990443;28;20039;-70
2022/10/18 03:42:37;;;;;;;;;;;;;;;0.83;100.00;96433.19;4990932;28;20020;-70
2022/10/18 03:45:04;;;;;;;;;;;;;;;0.76;100.00;96434.66;5010349;28;19952;-70
2022/10/18 03:47:31;;;;;;;;;;;;;;;0.70;100.00;96432.59;5006754;28;20706;-70
2022/10/18 03:49:58;;;;;;;;;;;;;;;0.48;100.00;96441.28;5012816;28;19969;-70
2022/10/18 03:52:24;;;;;;;;;;;;;;;0.52;100.00;96442.66;5008438;28;19994;-70
2022/10/18 03:54:51;;;;;;;;;;;;;;;0.59;100.00;96435.28;4989192;28;20036;-70
2022/10/18 03:57:17;;;;;;;;;;;;;;;0.52;100.00;96448.63;5006839;28;20022;-70
2022/10/18 03:59:44;;;;;;;;;;;;;;;0.62;100.00;96445.28;5012692;28;20390;-70
2022/10/18 04:02:11;;;;;;;;;;;;;;;0.52;100.00;96446.06;5011829;28;19933;-70
2022/10/18 04:04:37;;;;;;;;;;;;;;;0.68;100.00;96439.63;5015129;28;19929;-70
2022/10/18 04:07:04;;;;;;;;;;;;;;;0.52;100.00;96443.50;5014018;28;20545;-70
2022/10/18 04:09:31;;;;;;;;;;;;;;;0.35;100.00;96444.06;4996868;28;19929;-69
2022/10/18 04:11:57;;;;;;;;;;;;;;;0.37;100.00;96442.19;5015097;28;19987;-70
2022/10/18 04:14:25;;;;;;;;;;;;;;;0.36;100.00;96441.38;5013646;28;20875;-70
2022/10/18 04:16:53;;;;;;;;;;;;;;;0.28;100.00;96437.84;5002669;28;20052;-70
2022/10/18 04:19:19;;;;;;;;;;;;;;;0.25;100.00;96444.00;5012164;28;20038;-70
2022/10/18 04:21:47;;;;;;;;;;;;;;;0.24;100.00;96441.59;5013712;28;19936;-70
2022/10/18 04:24:17;;;;;;;;;;;;;;;0.21;100.00;96441.84;5009676;28;19936;-71
2022/10/18 04:26:44;;;;;;;;;;;;;;;0.27;100.00;96434.47;4995824;28;20016;-71
2022/10/18 04:29:11;;;;;;;;;;;;;;;0.26;100.00;96435.38;5013551;28;19929;-71
2022/10/18 04:31:39;;;;;;;;;;;;;;;0.13;100.00;96435.59;5014507;28;19932;-73
2022/10/18 04:34:06;;;;;;;;;;;;;;;0.02;100.00;96435.69;4998919;28;19944;-70
2022/10/18 04:36:33;;;;;;;;;;;;;;;-0.11;100.00;96433.31;5011423;28;19925;-70
2022/10/18 04:38:59;;;;;;;;;;;;;;;-0.11;100.00;96422.22;5019790;28;19925;-70
2022/10/18 04:41:26;;;;;;;;;;;;;;;-0.08;100.00;96427.09;5014962;28;19937;-71
2022/10/18 04:43:52;;;;;;;;;;;;;;;-0.04;100.00;96424.19;5012773;28;19933;-72
2022/10/18 04:46:19;;;;;;;;;;;;;;;0.03;100.00;96414.22;5007878;28;19940;-70
2022/10/18 04:48:46;;;;;;;;;;;;;;;0.07;100.00;96425.84;4993266;28;20008;-71
2022/10/18 04:51:13;;;;;;;;;;;;;;;0.05;100.00;96422.59;4988121;28;19921;-71
2022/10/18 04:53:39;;;;;;;;;;;;;;;0.21;100.00;96434.97;4993908;28;19929;-72
2022/10/18 04:56:06;;;;;;;;;;;;;;;0.22;100.00;96426.34;4991919;28;19929;-71
2022/10/18 04:58:33;;;;;;;;;;;;;;;0.30;100.00;96429.06;4993172;28;19932;-70
2022/10/18 05:01:03;;;;;;;;;;;;;;;0.13;100.00;96425.34;4988225;28;20841;-71
2022/10/18 05:03:31;;;;;;;;;;;;;;;0.02;100.00;96420.31;4984144;28;19980;-70
2022/10/18 05:05:57;;;;;;;;;;;;;;;0.09;100.00;96418.84;4992208;28;20020;-70
2022/10/18 05:08:31;;;;;;;;;;;;;;;0.06;100.00;96413.97;4986543;28;19949;-68
2022/10/18 05:10:58;;;;;;;;;;;;;;;0.23;100.00;96422.03;4986955;28;19974;-70
2022/10/18 05:13:25;;;;;;;;;;;;;;;0.36;100.00;96422.59;4987261;28;19980;-69
2022/10/18 05:15:51;;;;;;;;;;;;;;;0.53;100.00;96416.09;4993485;28;19961;-70
2022/10/18 05:18:18;;;;;;;;;;;;;;;0.80;100.00;96418.06;4989188;28;19961;-70
2022/10/18 05:20:45;;;;;;;;;;;;;;;0.88;100.00;96420.78;4990867;28;19987;-69
2022/10/18 05:23:12;;;;;;;;;;;;;;;0.99;100.00;96416.47;4984470;28;19935;-70
2022/10/18 05:25:39;;;;;;;;;;;;;;;0.97;100.00;96416.59;4991021;28;20000;-71
2022/10/18 05:28:06;;;;;;;;;;;;;;;1.14;100.00;96410.03;5000579;28;19929;-70
2022/10/18 05:30:52;;;;;;;;;;;;;;;1.31;100.00;96416.25;4994379;28;19940;-69
2022/10/18 05:33:19;;;;;;;;;;;;;;;1.37;100.00;96414.91;4988504;28;20770;-69
2022/10/18 05:35:46;;;;;;;;;;;;;;;1.45;100.00;96412.50;4994953;28;20045;-69
2022/10/18 05:38:13;;;;;;;;;;;;;;;1.47;100.00;96410.59;4994784;28;19933;-69
2022/10/18 05:40:39;;;;;;;;;;;;;;;1.73;100.00;96413.44;4989673;28;19999;-69
2022/10/18 05:43:06;;;;;;;;;;;;;;;1.97;100.00;96418.13;4993469;28;19976;-70
2022/10/18 05:45:32;;;;;;;;;;;;;;;2.08;100.00;96420.53;4988403;28;19976;-70
2022/10/18 05:47:59;;;;;;;;;;;;;;;2.22;100.00;96415.91;5001615;28;19936;-70
2022/10/18 05:50:26;;;;;;;;;;;;;;;2.44;100.00;96420.69;5010189;28;20012;-64
2022/10/18 05:52:56;;;;;;;;;;;;;;;2.75;100.00;96423.00;5016059;28;19925;-67
2022/10/18 05:55:37;;;;;;;;;;;;;;;3.11;100.00;96427.44;5011288;28;19929;-66
2022/10/18 05:58:04;;;;;;;;;;;;;;;3.29;100.00;96420.53;5011612;28;19984;-69
2022/10/18 06:00:31;;;;;;;;;;;;;;;3.41;100.00;96424.50;5011846;28;20662;-66
2022/10/18 06:02:57;;;;;;;;;;;;;;;3.54;100.00;96434.44;5011699;28;20024;-65
2022/10/18 06:05:26;;;;;;;;;;;;;;;4.02;100.00;96430.66;5014365;28;19933;-73
2022/10/18 06:07:53;;;;;;;;;;;;;;;4.91;100.00;96427.91;5013136;28;20020;-73
2022/10/18 06:10:20;;;;;;;;;;;;;;;5.44;100.00;96431.91;4999219;28;19980;-67
2022/10/18 06:12:59;;;;;;;;;;;;;;;3.69;100.00;96446.81;5115402;27;20147;-64
2022/10/18 06:15:26;;;;;;;;;;;;;;;3.13;100.00;96441.75;5094015;28;19963;-64
2022/10/18 06:17:54;;;;;;;;;;;;;;;3.32;100.00;96434.91;5090898;28;20171;-63
2022/10/18 06:20:20;;;;;;;;;;;;;;;3.28;100.00;96433.53;5095608;28;19975;-64
2022/10/18 06:22:50;;;;;;;;;;;;;;;3.59;100.00;96445.13;5089984;28;19932;-64
2022/10/18 06:25:17;;;;;;;;;;;;;;;3.66;100.00;96436.81;5088377;28;19932;-63
2022/10/18 06:27:43;;;;;;;;;;;;;;;3.99;100.00;96443.84;5087201;27;19924;-64
2022/10/18 06:30:10;;;;;;;;;;;;;;;4.22;100.00;96443.38;5090014;28;19977;-63
2022/10/18 06:32:36;;;;;;;;;;;;;;;4.19;100.00;96439.28;5091142;28;20354;-63
2022/10/18 06:35:03;;;;;;;;;;;;;;;4.11;100.00;96436.69;5092870;28;19958;-64
2022/10/18 06:37:30;;;;;;;;;;;;;;;4.19;100.00;96438.50;5092724;28;20681;-63
2022/10/18 06:39:57;;;;;;;;;;;;;;;4.26;100.00;96434.34;5088019;28;20432;-63
2022/10/18 06:42:24;;;;;;;;;;;;;;;4.60;100.00;96431.00;5090853;28;20003;-63
2022/10/18 06:44:50;;;;;;;;;;;;;;;4.66;100.00;96378.75;5091874;28;19932;-63
2022/10/18 06:47:17;;;;;;;;;;;;;;;5.38;100.00;96429.97;5091910;28;19967;-63
2022/10/18 06:49:43;;;;;;;;;;;;;;;5.36;100.00;96422.34;5089797;28;20039;-64
2022/10/18 06:52:10;;;;;;;;;;;;;;;5.75;100.00;96421.75;5092832;28;20004;-63
2022/10/18 06:54:37;;;;;;;;;;;;;;;5.65;100.00;96420.31;5086400;28;19967;-63
2022/10/18 06:57:03;;;;;;;;;;;;;;;5.87;100.00;96417.09;5092690;28;20111;-64
2022/10/18 06:59:30;;;;;;;;;;;;;;;6.34;100.00;96425.13;5088756;28;20104;-64
2022/10/18 07:01:57;;;;;;;;;;;;;;;6.81;100.00;96432.13;5088335;28;19932;-64
2022/10/18 07:04:26;;;;;;;;;;;;;;;6.32;100.00;96428.72;5085665;28;19931;-63
2022/10/18 07:06:53;;;;;;;;;;;;;;;6.48;100.00;96411.50;5088973;28;19932;-64
2022/10/18 07:09:19;;;;;;;;;;;;;;;6.93;100.00;96424.78;5085614;28;19946;-63
2022/10/18 07:11:46;;;;;;;;;;;;;;;6.92;100.00;96424.00;5086006;28;20666;-64
2022/10/18 07:14:13;;;;;;;;;;;;;;;6.96;100.00;96430.44;5090198;28;19931;-63
2022/10/18 07:16:41;;;;;;;;;;;;;;;7.40;100.00;96421.31;5087923;28;20023;-63
2022/10/18 07:19:08;;;;;;;;;;;;;;;7.85;100.00;96425.69;5093027;28;19928;-63
2022/10/18 07:21:35;;;;;;;;;;;;;;;7.98;100.00;96430.31;5089938;28;19939;-64
2022/10/18 07:24:02;;;;;;;;;;;;;;;8.07;100.00;96428.44;5078632;28;20058;-63
2022/10/18 07:26:30;;;;;;;;;;;;;;;7.95;100.00;96422.06;5075100;28;19924;-63
2022/10/18 07:28:59;;;;;;;;;;;;;;;8.34;100.00;96415.88;5076718;28;19955;-62
2022/10/18 07:31:26;;;;;;;;;;;;;;;8.78;100.00;96417.69;5074427;28;20043;-62
2022/10/18 07:33:53;;;;;;;;;;;;;;;9.01;100.00;96406.38;5073777;28;19935;-62
2022/10/18 07:36:23;;;;;;;;;;;;;;;9.23;100.00;96407.22;5071860;28;20577;-62
2022/10/18 07:38:51;;;;;;;;;;;;;;;8.81;100.00;96404.34;5070538;28;19928;-62
2022/10/18 07:41:17;;;;;;;;;;;;;;;9.12;100.00;96406.72;5073758;28;20001;-62
2022/10/18 07:43:45;;;;;;;;;;;;;;;9.58;100.00;96397.78;5070754;27;19994;-62
2022/10/18 07:46:13;;;;;;;;;;;;;;;9.69;100.00;96402.50;5075117;28;19932;-62
2022/10/18 07:48:39;;;;;;;;;;;;;;;9.75;100.00;96390.53;5078046;27;19981;-62
2022/10/18 07:51:06;;;;;;;;;;;;;;;10.28;100.00;96395.31;5075246;28;19952;-62
2022/10/18 07:53:33;;;;;;;;;;;;;;;10.56;100.00;96397.16;5071446;27;19956;-61
2022/10/18 07:56:01;;;;;;;;;;;;;;;11.07;100.00;96399.38;5077847;28;19932;-62
2022/10/18 07:58:33;;;;;;;;;;;;;;;10.21;100.00;96391.88;5076718;27;19928;-62
2022/10/18 08:01:03;;;;;;;;;;;;;;;10.56;100.00;96389.34;5076982;28;19963;-62
2022/10/18 08:03:30;;;;;;;;;;;;;;;10.79;100.00;96381.22;5069880;27;20543;-61
2022/10/18 08:05:57;;;;;;;;;;;;;;;10.92;100.00;96383.09;5073419;28;20014;-66
2022/10/18 08:08:24;;;;;;;;;;;;;;;11.27;100.00;96374.19;5072026;27;20410;-64
2022/10/18 08:10:51;;;;;;;;;;;;;;;11.50;100.00;96367.78;5074214;28;20019;-65
2022/10/18 08:13:18;;;;;;;;;;;;;;;11.74;100.00;96376.84;5076841;27;19962;-65
2022/10/18 08:15:44;;;;;;;;;;;;;;;12.03;100.00;96378.28;5070757;28;20569;-65
2022/10/18 08:18:11;;;;;;;;;;;;;;;12.02;100.00;96366.22;5078714;27;20814;-66
2022/10/18 08:20:42;;;;;;;;;;;;;;;11.82;100.00;96370.63;5074030;28;19928;-65
2022/10/18 08:23:09;;;;;;;;;;;;;;;12.07;100.00;96362.22;5076936;28;20408;-65
2022/10/18 08:25:35;;;;;;;;;;;;;;;12.18;100.00;96361.59;5076829;27;20488;-65
2022/10/18 08:28:02;;;;;;;;;;;;;;;12.36;100.00;96356.53;5075946;28;19935;-64
2022/10/18 08:30:29;;;;;;;;;;;;;;;12.90;100.00;96345.91;5075438;27;19967;-65
2022/10/18 08:32:55;;;;;;;;;;;;;;;12.53;100.00;96350.88;5075649;28;20168;-65
2022/10/18 08:35:22;;;;;;;;;;;;;;;12.86;100.00;96345.53;5076038;27;19924;-67
2022/10/18 08:37:49;;;;;;;;;;;;;;;13.01;100.00;96347.88;5075578;28;19932;-67
2022/10/18 08:40:15;;;;;;;;;;;;;;;12.67;100.00;96341.97;5073876;27;20051;-62
2022/10/18 08:42:48;;;;;;;;;;;;;;;13.09;100.00;96334.56;5069598;28;19924;-65
2022/10/18 11:17:05;;;;;;;;;;;;;;;24.17;100.00;96120.91;5119276;27;19920;-68
2022/10/18 11:19:52;;;;;;;;;;;;;;;23.49;31.54;96151.16;5094625;28;19928;-67
2022/10/18 11:22:20;;;;;;;;;;;;;;;22.41;31.52;96137.88;5093900;28;20075;-67
2022/10/18 11:24:47;;;;;;;;;;;;;;;22.03;28.76;96143.59;5100003;28;19964;-72
2022/10/18 11:27:26;;;;;;;;;;;;;;;21.62;27.57;96135.00;5100329;28;20374;-67
2022/10/18 11:30:01;;;;;;;;;;;;;;;21.48;27.83;96127.63;5101592;28;19988;-68
2022/10/18 11:32:44;;;;;;;;;;;;;;;21.46;25.54;96119.09;5094891;28;19935;-65
2022/10/18 11:35:22;;;;;;;;;;;;;;;21.49;26.82;96107.97;5101609;28;20475;-66
2022/10/18 11:38:00;;;;;;;;;;;;;;;21.64;26.70;96114.31;5095753;28;20000;-66
2022/10/18 11:40:33;;;;;;;;;;;;;;;21.69;25.39;96106.34;5097468;28;19941;-66
2022/10/18 11:43:15;;;;;;;;;;;;;;;21.86;28.19;96095.41;5093914;28;19931;-66
2022/10/18 11:46:03;;;;;;;;;;;;;;;21.93;23.05;96102.00;5089812;28;19936;-68
2022/10/18 11:48:47;;;;;;;;;;;;;;;22.13;25.05;96089.72;5084155;28;19928;-69
2022/10/18 11:51:13;;;;;;;;;;;;;;;22.14;27.37;96092.06;5092136;28;19964;-68
2022/10/18 11:53:43;;;;;;;;;;;;;;;22.33;23.35;96086.97;5092533;27;20011;-68
2022/10/18 11:56:20;;;;;;;;;;;;;;;22.46;23.11;96087.44;5090511;28;20010;-68
2022/10/18 11:58:52;;;;;;;;;;;;;;;22.50;23.54;96088.44;5093338;28;19928;-67
2022/10/18 12:01:27;;;;;;;;;;;;;;;22.60;22.53;96077.78;5094651;28;19963;-68
2022/10/18 12:04:10;;;;;;;;;;;;;;;22.77;20.54;96076.59;5091602;28;19932;-68
2022/10/18 12:06:45;;;;;;;;;;;;;;;22.82;22.15;96068.56;5090184;28;19968;-67
2022/10/18 12:09:24;;;;;;;;;;;;;;;23.07;21.49;96071.03;5089192;28;19984;-67
2022/10/18 12:11:55;;;;;;;;;;;;;;;23.28;22.58;96065.50;5089464;28;19924;-66
2022/10/18 12:14:29;;;;;;;;;;;;;;;23.21;24.10;96055.22;5087517;28;19928;-67
2022/10/18 12:16:58;;;;;;;;;;;;;;;23.67;24.49;96059.22;5090875;28;19924;-66
2022/10/18 12:19:46;;;;;;;;;;;;;;;23.87;22.74;96052.13;5086733;28;19932;-67
2022/10/18 12:25:39;;;;;;;;;;;;;;;24.63;20.77;96038.81;5083239;28;19940;-66
2022/10/18 12:28:05;;;;;;;;;;;;;;;25.22;20.01;96034.56;5076817;28;20388;-66
2022/10/18 12:30:46;;;;;;;;;;;;;;;25.84;19.01;96039.53;5073810;28;20050;-66
2022/10/18 12:33:16;;;;;;;;;;;;;;;27.34;18.01;96040.31;5079315;28;19975;-66
2022/10/18 12:36:02;;;;;;;;;;;;;;;28.29;18.76;96030.94;5075119;28;20096;-66
2022/10/18 12:38:34;;;;;;;;;;;;;;;29.85;16.02;96031.59;5078754;28;19977;-66
2022/10/18 12:41:01;;;;;;;;;;;;;;;31.04;14.75;96036.66;5072901;28;20747;-67
2022/10/18 12:43:33;;;;;;;;;;;;;;;31.58;13.68;96034.91;5075197;28;19959;-67
2022/10/18 12:46:10;;;;;;;;;;;;;;;32.60;13.54;96028.69;5072333;28;19928;-66
2022/10/18 12:48:44;;;;;;;;;;;;;;;32.53;13.79;96030.00;5077014;28;19928;-66
2022/10/18 12:51:14;;;;;;;;;;;;;;;33.88;14.14;96031.06;5073940;28;20019;-67
2022/10/18 12:53:43;;;;;;;;;;;;;;;34.27;13.85;96030.38;5072677;28;19942;-67
2022/10/18 12:56:28;;;;;;;;;;;;;;;34.78;13.59;96016.69;5075418;28;19939;-67
2022/10/18 12:59:16;;;;;;;;;;;;;;;35.37;12.90;96021.97;5075994;28;20469;-66
2022/10/18 13:01:51;;;;;;;;;;;;;;;35.76;12.13;96032.63;5077203;28;19932;-67
2022/10/18 13:04:27;;;;;;;;;;;;;;;35.73;12.78;96020.59;5075102;28;20707;-67
2022/10/18 13:06:57;;;;;;;;;;;;;;;36.53;12.03;96027.81;5075678;28;19924;-67
2022/10/18 13:09:25;;;;;;;;;;;;;;;36.37;12.49;96019.88;5072861;28;20595;-67
2022/10/18 13:12:12;;;;;;;;;;;;;;;36.16;11.81;96025.81;5074666;28;20016;-67
2022/10/18 13:14:38;;;;;;;;;;;;;;;36.22;12.32;96024.34;5069330;27;19979;-66
2022/10/18 13:17:36;;;;;;;;;;;;;;;36.47;12.39;96015.75;5075286;28;20444;-66
2022/10/18 13:20:21;;;;;;;;;;;;;;;36.09;11.46;96004.03;5074449;28;20054;-67
2022/10/18 13:22:58;;;;;;;;;;;;;;;36.60;10.94;96010.84;5077784;28;19931;-66
2022/10/18 13:25:45;;;;;;;;;;;;;;;36.77;12.21;96004.03;5075409;28;20023;-66
2022/10/18 13:28:11;;;;;;;;;;;;;;;36.53;11.70;96011.53;5077535;28;20564;-66
2022/10/18 13:30:50;;;;;;;;;;;;;;;36.68;11.80;96007.84;5072811;28;20015;-67
2022/10/18 13:33:24;;;;;;;;;;;;;;;36.79;11.74;96007.97;5078299;28;20438;-66
2022/10/18 13:35:54;;;;;;;;;;;;;;;37.47;11.33;95994.19;5070880;27;20051;-66
2022/10/18 13:38:36;;;;;;;;;;;;;;;37.31;11.15;95999.88;5075214;28;20332;-67
2022/10/18 13:41:05;;;;;;;;;;;;;;;37.89;10.68;95992.91;5074492;28;20263;-66
2022/10/18 13:43:50;;;;;;;;;;;;;;;37.40;11.28;95986.78;5078753;28;19993;-66
2022/10/18 13:46:18;;;;;;;;;;;;;;;37.77;11.67;95983.13;5073906;28;19928;-66
2022/10/18 13:48:52;;;;;;;;;;;;;;;37.81;11.09;95983.16;5077762;28;19928;-66
2022/10/18 13:51:19;;;;;;;;;;;;;;;37.56;11.25;95982.97;5074477;28;20027;-66
2022/10/18 13:53:53;;;;;;;;;;;;;;;37.30;11.52;95976.59;5077083;28;20017;-66
2022/10/18 13:56:33;;;;;;;;;;;;;;;37.96;10.84;95978.56;5071843;28;21274;-66
2022/10/18 13:59:20;;;;;;;;;;;;;;;37.38;11.56;95970.06;5077394;28;20023;-66
2022/10/18 14:01:59;;;;;;;;;;;;;;;37.33;11.45;95975.88;5073944;28;20478;-66
2022/10/18 14:04:44;;;;;;;;;;;;;;;38.15;11.12;95975.56;5078106;28;19924;-66
2022/10/18 14:07:11;;;;;;;;;;;;;;;37.70;11.43;95971.44;5073187;28;20497;-66
2022/10/18 14:09:47;;;;;;;;;;;;;;;37.80;10.73;95971.50;5072745;28;19967;-66
2022/10/18 14:12:33;;;;;;;;;;;;;;;38.57;11.44;95968.72;5073584;28;19928;-66
2022/10/18 14:15:14;;;;;;;;;;;;;;;37.80;10.73;95966.06;5077421;28;20409;-66
2022/10/18 14:17:50;;;;;;;;;;;;;;;36.94;12.03;95957.28;5074295;28;19964;-66
2022/10/18 14:20:25;;;;;;;;;;;;;;;37.00;12.25;95958.50;5077008;28;19928;-66
2022/10/18 14:23:04;;;;;;;;;;;;;;;36.89;11.87;95957.63;5072967;28;20050;-66
2022/10/18 14:25:32;;;;;;;;;;;;;;;36.88;11.26;95959.56;5073837;28;19932;-66
2022/10/18 14:28:12;;;;;;;;;;;;;;;36.72;11.33;95959.03;5074725;28;20022;-65
2022/10/18 14:31:11;;;;;;;;;;;;;;;36.61;11.45;95953.50;5074479;28;19963;-66
2022/10/18 14:33:37;;;;;;;;;;;;;;;36.64;11.55;95952.72;5061183;28;20091;-67
2022/10/18 14:36:10;;;;;;;;;;;;;;;36.16;11.95;95950.66;5075540;28;19978;-67
2022/10/18 14:39:10;;;;;;;;;;;;;;;35.49;12.17;95951.34;5073082;28;19928;-67
2022/10/18 14:41:46;;;;;;;;;;;;;;;35.63;12.31;95947.25;5094455;27;20461;-64
2022/10/18 14:44:13;;;;;;;;;;;;;;;34.66;12.26;95938.38;5074236;28;19927;-65
2022/10/18 14:46:45;;;;;;;;;;;;;;;35.73;11.48;95938.53;5072913;28;20018;-64
2022/10/18 14:49:13;;;;;;;;;;;;;;;34.73;12.76;95938.53;5071688;28;19931;-64
2022/10/18 14:51:41;;;;;;;;;;;;;;;34.20;13.44;95932.91;5075426;28;19950;-64
2022/10/18 14:54:18;;;;;;;;;;;;;;;33.25;13.35;95929.34;5075526;28;19928;-64
2022/10/18 14:56:46;;;;;;;;;;;;;;;33.50;13.34;95929.13;5071236;28;20442;-66
2022/10/18 14:59:19;;;;;;;;;;;;;;;33.21;13.70;95923.09;5071468;28;19928;-66
2022/10/18 15:02:12;;;;;;;;;;;;;;;32.26;14.83;95917.59;5071011;28;19931;-66
2022/10/18 15:04:42;;;;;;;;;;;;;;;31.42;15.22;95919.84;5070691;28;19924;-66
2022/10/18 15:07:14;;;;;;;;;;;;;;;30.54;16.09;95919.34;5070885;28;19931;-66
2022/10/18 15:09:41;;;;;;;;;;;;;;;29.17;17.95;95913.56;5073625;28;19928;-66
2022/10/18 15:12:11;;;;;;;;;;;;;;;28.34;18.81;95904.06;5072911;28;19960;-66
2022/10/18 15:14:38;;;;;;;;;;;;;;;27.83;18.85;95901.13;5075228;28;19936;-66
2022/10/18 15:17:23;;;;;;;;;;;;;;;27.31;19.60;95901.09;5075169;28;19994;-66
2022/10/18 15:20:01;;;;;;;;;;;;;;;26.48;20.79;95900.56;5074363;28;19985;-65
2022/10/18 15:22:32;;;;;;;;;;;;;;;25.91;21.20;95892.34;5074780;28;19959;-66
2022/10/18 15:25:16;;;;;;;;;;;;;;;24.87;22.78;95879.59;5077327;28;20017;-66
2022/10/18 15:27:45;;;;;;;;;;;;;;;24.48;22.89;95872.84;5074045;28;19928;-66
2022/10/18 15:30:26;;;;;;;;;;;;;;;24.01;23.91;95880.03;5075337;28;19928;-68
2022/10/18 15:32:55;;;;;;;;;;;;;;;23.24;25.66;95873.16;5077299;28;19939;-67
2022/10/18 15:35:32;;;;;;;;;;;;;;;22.85;27.49;95866.16;5081318;28;19947;-67
2022/10/18 15:38:03;;;;;;;;;;;;;;;22.13;28.46;95866.88;5076736;28;19927;-67